sensor_id;sensor_type;location;lat;lon;timestamp;temperature;humidity
11569;DHT22;5840;46.894;15.542;2022-08-11T00:01:04;18.10;90.60
11569;DHT22;5840;46.894;15.542;2022-08-11T00:03:32;18.00;90.70
11569;DHT22;5840;46.894;15.542;2022-08-11T00:06:00;18.00;90.80
11569;DHT22;5840;46.894;15.542;2022-08-11T00:08:30;18.00;91.10
11569;DHT22;5840;46.894;15.542;2022-08-11T00:10:58;17.90;91.10
11569;DHT22;5840;46.894;15.542;2022-08-11T00:13:36;17.90;91.30
11569;DHT22;5840;46.894;15.542;2022-08-11T00:16:09;17.80;91.70
11569;DHT22;5840;46.894;15.542;2022-08-11T00:18:40;17.80;91.50
11569;DHT22;5840;46.894;15.542;2022-08-11T00:21:09;17.80;91.90
11569;DHT22;5840;46.894;15.542;2022-08-11T00:23:41;17.80;91.90
11569;DHT22;5840;46.894;15.542;2022-08-11T00:26:09;17.70;91.90
11569;DHT22;5840;46.894;15.542;2022-08-11T00:28:39;17.70;91.80
11569;DHT22;5840;46.894;15.542;2022-08-11T00:31:09;17.60;92.20
11569;DHT22;5840;46.894;15.542;2022-08-11T00:33:38;17.60;92.10
11569;DHT22;5840;46.894;15.542;2022-08-11T00:36:08;17.50;92.10
11569;DHT22;5840;46.894;15.542;2022-08-11T00:38:37;17.50;92.50
11569;DHT22;5840;46.894;15.542;2022-08-11T00:41:17;17.40;93.10
11569;DHT22;5840;46.894;15.542;2022-08-11T00:44:06;17.30;93.20
11569;DHT22;5840;46.894;15.542;2022-08-11T00:46:45;17.30;93.40
11569;DHT22;5840;46.894;15.542;2022-08-11T00:49:29;17.20;93.50
11569;DHT22;5840;46.894;15.542;2022-08-11T00:52:10;17.20;93.60
11569;DHT22;5840;46.894;15.542;2022-08-11T00:55:01;17.10;93.90
11569;DHT22;5840;46.894;15.542;2022-08-11T01:01:04;17.00;94.30
11569;DHT22;5840;46.894;15.542;2022-08-11T01:03:53;16.90;94.50
11569;DHT22;5840;46.894;15.542;2022-08-11T01:06:46;16.90;94.80
11569;DHT22;5840;46.894;15.542;2022-08-11T01:10:06;16.90;95.10
11569;DHT22;5840;46.894;15.542;2022-08-11T01:12:48;16.80;95.50
11569;DHT22;5840;46.894;15.542;2022-08-11T01:15:57;16.80;95.50
11569;DHT22;5840;46.894;15.542;2022-08-11T01:18:51;16.70;95.50
11569;DHT22;5840;46.894;15.542;2022-08-11T01:21:52;16.70;95.70
11569;DHT22;5840;46.894;15.542;2022-08-11T01:28:13;16.60;95.50
11569;DHT22;5840;46.894;15.542;2022-08-11T01:37:15;16.50;96.60
11569;DHT22;5840;46.894;15.542;2022-08-11T01:43:54;16.30;97.40
11569;DHT22;5840;46.894;15.542;2022-08-11T01:46:51;16.30;97.10
11569;DHT22;5840;46.894;15.542;2022-08-11T01:49:24;16.20;97.40
11569;DHT22;5840;46.894;15.542;2022-08-11T01:52:19;16.20;97.70
11569;DHT22;5840;46.894;15.542;2022-08-11T01:54:58;16.20;97.70
11569;DHT22;5840;46.894;15.542;2022-08-11T01:57:35;16.10;97.90
11569;DHT22;5840;46.894;15.542;2022-08-11T02:00:08;16.10;98.20
11569;DHT22;5840;46.894;15.542;2022-08-11T02:02:46;16.10;98.40
11569;DHT22;5840;46.894;15.542;2022-08-11T02:05:41;16.00;98.80
11569;DHT22;5840;46.894;15.542;2022-08-11T02:08:22;16.00;98.60
11569;DHT22;5840;46.894;15.542;2022-08-11T02:10:56;16.00;98.50
11569;DHT22;5840;46.894;15.542;2022-08-11T02:13:45;15.90;98.50
11569;DHT22;5840;46.894;15.542;2022-08-11T02:16:20;15.90;98.70
11569;DHT22;5840;46.894;15.542;2022-08-11T02:18:54;15.90;98.50
11569;DHT22;5840;46.894;15.542;2022-08-11T02:21:49;15.90;98.50
11569;DHT22;5840;46.894;15.542;2022-08-11T02:24:43;15.90;98.40
11569;DHT22;5840;46.894;15.542;2022-08-11T02:27:18;15.80;98.40
11569;DHT22;5840;46.894;15.542;2022-08-11T02:29:52;15.80;98.70
11569;DHT22;5840;46.894;15.542;2022-08-11T02:32:30;15.80;99.00
11569;DHT22;5840;46.894;15.542;2022-08-11T02:35:27;15.80;99.10
11569;DHT22;5840;46.894;15.542;2022-08-11T02:38:13;15.70;99.80
11569;DHT22;5840;46.894;15.542;2022-08-11T02:40:47;15.70;99.80
11569;DHT22;5840;46.894;15.542;2022-08-11T02:43:37;15.60;99.60
11569;DHT22;5840;46.894;15.542;2022-08-11T02:46:19;15.70;99.30
11569;DHT22;5840;46.894;15.542;2022-08-11T02:48:57;15.70;99.50
11569;DHT22;5840;46.894;15.542;2022-08-11T02:51:56;15.70;99.20
11569;DHT22;5840;46.894;15.542;2022-08-11T02:54:28;15.70;99.70
11569;DHT22;5840;46.894;15.542;2022-08-11T02:57:03;15.70;99.30
11569;DHT22;5840;46.894;15.542;2022-08-11T02:59:40;15.70;99.40
11569;DHT22;5840;46.894;15.542;2022-08-11T03:02:37;15.70;99.40
11569;DHT22;5840;46.894;15.542;2022-08-11T03:05:20;15.70;99.20
11569;DHT22;5840;46.894;15.542;2022-08-11T03:08:03;15.70;99.40
11569;DHT22;5840;46.894;15.542;2022-08-11T03:10:40;15.70;99.20
11569;DHT22;5840;46.894;15.542;2022-08-11T03:13:23;15.70;99.10
11569;DHT22;5840;46.894;15.542;2022-08-11T03:16:15;15.70;99.10
11569;DHT22;5840;46.894;15.542;2022-08-11T03:19:10;15.60;99.00
11569;DHT22;5840;46.894;15.542;2022-08-11T03:21:44;15.70;99.00
11569;DHT22;5840;46.894;15.542;2022-08-11T03:24:16;15.70;98.70
11569;DHT22;5840;46.894;15.542;2022-08-11T03:26:50;15.70;98.70
11569;DHT22;5840;46.894;15.542;2022-08-11T03:29:29;15.60;99.50
11569;DHT22;5840;46.894;15.542;2022-08-11T03:32:01;15.60;99.80
11569;DHT22;5840;46.894;15.542;2022-08-11T03:34:32;15.50;99.90
11569;DHT22;5840;46.894;15.542;2022-08-11T03:37:30;15.50;99.90
11569;DHT22;5840;46.894;15.542;2022-08-11T03:40:30;15.50;99.80
11569;DHT22;5840;46.894;15.542;2022-08-11T03:43:26;15.50;99.70
11569;DHT22;5840;46.894;15.542;2022-08-11T03:46:02;15.50;99.80
11569;DHT22;5840;46.894;15.542;2022-08-11T03:48:39;15.50;99.90
11569;DHT22;5840;46.894;15.542;2022-08-11T03:51:17;15.50;99.90
11569;DHT22;5840;46.894;15.542;2022-08-11T03:53:59;15.40;99.90
11569;DHT22;5840;46.894;15.542;2022-08-11T03:57:17;15.40;99.90
11569;DHT22;5840;46.894;15.542;2022-08-11T04:00:17;15.50;99.90
11569;DHT22;5840;46.894;15.542;2022-08-11T04:06:36;15.50;99.90
11569;DHT22;5840;46.894;15.542;2022-08-11T04:12:33;15.40;99.90
11569;DHT22;5840;46.894;15.542;2022-08-11T04:15:14;15.40;99.90
11569;DHT22;5840;46.894;15.542;2022-08-11T04:27:52;15.30;99.90
11569;DHT22;5840;46.894;15.542;2022-08-11T04:30:27;15.30;99.90
11569;DHT22;5840;46.894;15.542;2022-08-11T04:33:22;15.30;99.90
11569;DHT22;5840;46.894;15.542;2022-08-11T04:36:07;15.40;99.90
11569;DHT22;5840;46.894;15.542;2022-08-11T04:39:03;15.40;99.90
11569;DHT22;5840;46.894;15.542;2022-08-11T04:41:55;15.40;99.90
11569;DHT22;5840;46.894;15.542;2022-08-11T04:45:25;15.30;99.90
11569;DHT22;5840;46.894;15.542;2022-08-11T04:48:13;15.30;99.90
11569;DHT22;5840;46.894;15.542;2022-08-11T04:51:16;15.30;99.90
11569;DHT22;5840;46.894;15.542;2022-08-11T04:54:18;15.30;99.90
11569;DHT22;5840;46.894;15.542;2022-08-11T04:57:13;15.30;99.90
11569;DHT22;5840;46.894;15.542;2022-08-11T05:00:06;15.40;99.90
11569;DHT22;5840;46.894;15.542;2022-08-11T05:03:24;15.40;99.90
11569;DHT22;5840;46.894;15.542;2022-08-11T05:09:27;15.50;99.90
11569;DHT22;5840;46.894;15.542;2022-08-11T05:14:58;15.50;99.90
11569;DHT22;5840;46.894;15.542;2022-08-11T05:17:45;15.50;99.90
11569;DHT22;5840;46.894;15.542;2022-08-11T05:20:45;15.40;99.90
11569;DHT22;5840;46.894;15.542;2022-08-11T05:23:32;15.50;99.90
11569;DHT22;5840;46.894;15.542;2022-08-11T05:26:18;15.50;99.90
11569;DHT22;5840;46.894;15.542;2022-08-11T05:29:02;15.60;99.90
11569;DHT22;5840;46.894;15.542;2022-08-11T05:31:54;15.70;99.90
11569;DHT22;5840;46.894;15.542;2022-08-11T05:34:43;15.80;99.90
11569;DHT22;5840;46.894;15.542;2022-08-11T05:37:22;15.90;99.90
11569;DHT22;5840;46.894;15.542;2022-08-11T05:39:56;16.10;99.90
11569;DHT22;5840;46.894;15.542;2022-08-11T05:42:48;16.20;99.90
11569;DHT22;5840;46.894;15.542;2022-08-11T05:45:34;16.30;99.90
11569;DHT22;5840;46.894;15.542;2022-08-11T05:48:19;16.40;99.90
11569;DHT22;5840;46.894;15.542;2022-08-11T05:51:04;16.50;99.90
11569;DHT22;5840;46.894;15.542;2022-08-11T05:53:53;16.60;99.90
11569;DHT22;5840;46.894;15.542;2022-08-11T05:56:46;16.60;99.90
11569;DHT22;5840;46.894;15.542;2022-08-11T05:59:16;16.70;99.90
11569;DHT22;5840;46.894;15.542;2022-08-11T06:01:45;16.70;99.90
11569;DHT22;5840;46.894;15.542;2022-08-11T06:04:16;16.70;99.90
11569;DHT22;5840;46.894;15.542;2022-08-11T06:06:53;16.70;99.90
11569;DHT22;5840;46.894;15.542;2022-08-11T06:09:27;16.80;99.90
11569;DHT22;5840;46.894;15.542;2022-08-11T06:11:58;16.90;99.90
11569;DHT22;5840;46.894;15.542;2022-08-11T06:14:26;17.00;99.90
11569;DHT22;5840;46.894;15.542;2022-08-11T06:16:57;17.10;99.90
11569;DHT22;5840;46.894;15.542;2022-08-11T06:19:34;17.30;99.90
11569;DHT22;5840;46.894;15.542;2022-08-11T06:22:03;17.40;99.90
11569;DHT22;5840;46.894;15.542;2022-08-11T06:24:32;17.50;99.90
11569;DHT22;5840;46.894;15.542;2022-08-11T06:27:00;17.70;99.90
11569;DHT22;5840;46.894;15.542;2022-08-11T06:29:32;17.90;99.90
11569;DHT22;5840;46.894;15.542;2022-08-11T06:32:01;18.00;99.90
11569;DHT22;5840;46.894;15.542;2022-08-11T06:34:36;18.20;99.90
11569;DHT22;5840;46.894;15.542;2022-08-11T06:37:19;18.30;99.90
11569;DHT22;5840;46.894;15.542;2022-08-11T06:39:54;18.50;99.90
11569;DHT22;5840;46.894;15.542;2022-08-11T06:42:42;18.70;99.90
11569;DHT22;5840;46.894;15.542;2022-08-11T06:45:19;19.00;99.90
11569;DHT22;5840;46.894;15.542;2022-08-11T06:47:51;19.20;99.90
11569;DHT22;5840;46.894;15.542;2022-08-11T06:50:19;19.50;99.90
11569;DHT22;5840;46.894;15.542;2022-08-11T06:53:06;19.70;99.90
11569;DHT22;5840;46.894;15.542;2022-08-11T06:55:40;20.00;99.90
11569;DHT22;5840;46.894;15.542;2022-08-11T06:58:28;20.30;99.90
11569;DHT22;5840;46.894;15.542;2022-08-11T07:01:18;20.50;99.50
11569;DHT22;5840;46.894;15.542;2022-08-11T07:03:55;20.70;99.10
11569;DHT22;5840;46.894;15.542;2022-08-11T07:06:32;21.00;99.00
11569;DHT22;5840;46.894;15.542;2022-08-11T07:09:26;21.10;98.00
11569;DHT22;5840;46.894;15.542;2022-08-11T07:12:37;21.40;97.60
11569;DHT22;5840;46.894;15.542;2022-08-11T07:15:26;21.70;96.50
11569;DHT22;5840;46.894;15.542;2022-08-11T07:18:13;21.90;96.80
11569;DHT22;5840;46.894;15.542;2022-08-11T07:21:08;22.10;94.90
11569;DHT22;5840;46.894;15.542;2022-08-11T07:23:55;22.40;95.60
11569;DHT22;5840;46.894;15.542;2022-08-11T07:26:42;22.70;95.00
11569;DHT22;5840;46.894;15.542;2022-08-11T07:29:30;23.00;94.80
11569;DHT22;5840;46.894;15.542;2022-08-11T07:32:00;23.30;92.00
11569;DHT22;5840;46.894;15.542;2022-08-11T07:34:35;23.50;91.40
11569;DHT22;5840;46.894;15.542;2022-08-11T07:37:07;23.90;90.90
11569;DHT22;5840;46.894;15.542;2022-08-11T07:39:35;24.20;90.70
11569;DHT22;5840;46.894;15.542;2022-08-11T07:42:05;24.50;90.40
11569;DHT22;5840;46.894;15.542;2022-08-11T07:44:34;24.60;84.00
11569;DHT22;5840;46.894;15.542;2022-08-11T07:47:23;24.60;83.70
11569;DHT22;5840;46.894;15.542;2022-08-11T07:50:14;24.70;80.00
11569;DHT22;5840;46.894;15.542;2022-08-11T07:53:00;24.60;83.00
11569;DHT22;5840;46.894;15.542;2022-08-11T07:55:28;24.70;79.40
11569;DHT22;5840;46.894;15.542;2022-08-11T07:57:57;24.90;81.70
11569;DHT22;5840;46.894;15.542;2022-08-11T08:00:47;25.10;81.00
11569;DHT22;5840;46.894;15.542;2022-08-11T08:03:32;25.20;79.70
11569;DHT22;5840;46.894;15.542;2022-08-11T08:06:18;25.30;78.40
11569;DHT22;5840;46.894;15.542;2022-08-11T08:09:04;25.50;79.80
11569;DHT22;5840;46.894;15.542;2022-08-11T08:11:50;25.70;80.50
11569;DHT22;5840;46.894;15.542;2022-08-11T08:14:35;25.90;80.20
11569;DHT22;5840;46.894;15.542;2022-08-11T08:17:21;26.00;74.90
11569;DHT22;5840;46.894;15.542;2022-08-11T08:20:11;26.10;77.50
11569;DHT22;5840;46.894;15.542;2022-08-11T08:22:39;26.30;79.60
11569;DHT22;5840;46.894;15.542;2022-08-11T08:25:07;26.20;79.20
11569;DHT22;5840;46.894;15.542;2022-08-11T08:27:35;26.30;82.30
11569;DHT22;5840;46.894;15.542;2022-08-11T08:30:04;26.10;75.50
11569;DHT22;5840;46.894;15.542;2022-08-11T08:32:51;26.10;77.50
11569;DHT22;5840;46.894;15.542;2022-08-11T08:35:20;26.30;76.90
11569;DHT22;5840;46.894;15.542;2022-08-11T08:37:49;26.50;77.80
11569;DHT22;5840;46.894;15.542;2022-08-11T08:40:17;26.50;72.00
11569;DHT22;5840;46.894;15.542;2022-08-11T08:42:48;26.70;75.90
11569;DHT22;5840;46.894;15.542;2022-08-11T08:45:18;26.70;74.30
11569;DHT22;5840;46.894;15.542;2022-08-11T08:47:50;26.80;72.70
11569;DHT22;5840;46.894;15.542;2022-08-11T08:50:21;27.10;73.30
11569;DHT22;5840;46.894;15.542;2022-08-11T08:52:53;27.10;72.20
11569;DHT22;5840;46.894;15.542;2022-08-11T08:55:21;27.20;74.30
11569;DHT22;5840;46.894;15.542;2022-08-11T08:57:49;27.30;74.00
11569;DHT22;5840;46.894;15.542;2022-08-11T09:00:18;27.40;72.70
11569;DHT22;5840;46.894;15.542;2022-08-11T09:02:47;27.50;73.20
11569;DHT22;5840;46.894;15.542;2022-08-11T09:05:18;27.70;73.00
11569;DHT22;5840;46.894;15.542;2022-08-11T09:07:46;27.90;69.00
11569;DHT22;5840;46.894;15.542;2022-08-11T09:10:18;28.00;71.80
11569;DHT22;5840;46.894;15.542;2022-08-11T09:12:45;28.20;70.00
11569;DHT22;5840;46.894;15.542;2022-08-11T09:15:13;28.20;68.60
11569;DHT22;5840;46.894;15.542;2022-08-11T09:17:44;28.30;70.30
11569;DHT22;5840;46.894;15.542;2022-08-11T09:20:13;28.40;70.60
11569;DHT22;5840;46.894;15.542;2022-08-11T09:22:43;28.20;70.70
11569;DHT22;5840;46.894;15.542;2022-08-11T09:25:29;28.30;68.90
11569;DHT22;5840;46.894;15.542;2022-08-11T09:28:18;28.40;66.80
11569;DHT22;5840;46.894;15.542;2022-08-11T09:30:48;28.50;72.60
11569;DHT22;5840;46.894;15.542;2022-08-11T09:33:18;28.50;68.00
11569;DHT22;5840;46.894;15.542;2022-08-11T09:35:48;28.60;66.10
11569;DHT22;5840;46.894;15.542;2022-08-11T09:38:18;28.80;69.00
11569;DHT22;5840;46.894;15.542;2022-08-11T09:41:05;28.70;68.40
11569;DHT22;5840;46.894;15.542;2022-08-11T09:43:38;28.90;68.50
11569;DHT22;5840;46.894;15.542;2022-08-11T09:46:25;29.00;66.50
11569;DHT22;5840;46.894;15.542;2022-08-11T09:48:56;28.90;65.00
11569;DHT22;5840;46.894;15.542;2022-08-11T09:51:24;29.00;69.60
11569;DHT22;5840;46.894;15.542;2022-08-11T09:53:52;29.00;65.10
11569;DHT22;5840;46.894;15.542;2022-08-11T09:56:21;29.10;67.40
11569;DHT22;5840;46.894;15.542;2022-08-11T09:59:07;29.00;68.00
11569;DHT22;5840;46.894;15.542;2022-08-11T10:01:38;29.00;66.80
11569;DHT22;5840;46.894;15.542;2022-08-11T10:04:10;29.00;63.90
11569;DHT22;5840;46.894;15.542;2022-08-11T10:06:40;29.10;68.10
11569;DHT22;5840;46.894;15.542;2022-08-11T10:09:32;29.20;62.40
11569;DHT22;5840;46.894;15.542;2022-08-11T10:12:02;29.20;63.90
11569;DHT22;5840;46.894;15.542;2022-08-11T10:14:33;29.20;63.10
11569;DHT22;5840;46.894;15.542;2022-08-11T10:17:21;29.20;65.50
11569;DHT22;5840;46.894;15.542;2022-08-11T10:19:49;29.40;67.10
11569;DHT22;5840;46.894;15.542;2022-08-11T10:22:17;29.30;63.10
11569;DHT22;5840;46.894;15.542;2022-08-11T10:25:04;29.40;67.40
11569;DHT22;5840;46.894;15.542;2022-08-11T10:27:49;29.80;66.40
11569;DHT22;5840;46.894;15.542;2022-08-11T10:30:21;29.90;63.20
11569;DHT22;5840;46.894;15.542;2022-08-11T10:33:06;30.10;63.40
11569;DHT22;5840;46.894;15.542;2022-08-11T10:35:51;30.40;66.60
11569;DHT22;5840;46.894;15.542;2022-08-11T10:38:18;30.70;64.30
11569;DHT22;5840;46.894;15.542;2022-08-11T10:40:47;30.70;63.90
11569;DHT22;5840;46.894;15.542;2022-08-11T10:43:36;30.60;63.50
11569;DHT22;5840;46.894;15.542;2022-08-11T10:46:06;30.40;61.10
11569;DHT22;5840;46.894;15.542;2022-08-11T10:48:52;30.30;64.30
11569;DHT22;5840;46.894;15.542;2022-08-11T10:51:20;30.30;63.60
11569;DHT22;5840;46.894;15.542;2022-08-11T10:54:05;30.10;61.50
11569;DHT22;5840;46.894;15.542;2022-08-11T10:56:52;30.00;64.70
11569;DHT22;5840;46.894;15.542;2022-08-11T10:59:37;30.30;66.80
11569;DHT22;5840;46.894;15.542;2022-08-11T11:02:07;30.70;65.40
11569;DHT22;5840;46.894;15.542;2022-08-11T11:04:46;30.90;65.30
11569;DHT22;5840;46.894;15.542;2022-08-11T11:07:21;31.10;62.90
11569;DHT22;5840;46.894;15.542;2022-08-11T11:09:50;31.20;60.80
11569;DHT22;5840;46.894;15.542;2022-08-11T11:12:24;31.20;62.30
11569;DHT22;5840;46.894;15.542;2022-08-11T11:15:10;31.20;59.50
11569;DHT22;5840;46.894;15.542;2022-08-11T11:18:00;31.20;58.60
11569;DHT22;5840;46.894;15.542;2022-08-11T11:20:35;31.10;59.70
11569;DHT22;5840;46.894;15.542;2022-08-11T11:23:06;31.00;61.10
11569;DHT22;5840;46.894;15.542;2022-08-11T11:26:07;31.00;59.70
11569;DHT22;5840;46.894;15.542;2022-08-11T11:31:48;30.60;60.30
11569;DHT22;5840;46.894;15.542;2022-08-11T11:34:29;30.50;64.50
11569;DHT22;5840;46.894;15.542;2022-08-11T11:37:01;30.90;60.80
11569;DHT22;5840;46.894;15.542;2022-08-11T11:39:31;31.00;59.50
11569;DHT22;5840;46.894;15.542;2022-08-11T11:42:01;31.20;59.60
11569;DHT22;5840;46.894;15.542;2022-08-11T11:44:30;31.30;58.10
11569;DHT22;5840;46.894;15.542;2022-08-11T11:46:58;31.70;59.60
11569;DHT22;5840;46.894;15.542;2022-08-11T11:49:27;31.80;62.20
11569;DHT22;5840;46.894;15.542;2022-08-11T11:51:58;31.80;57.80
11569;DHT22;5840;46.894;15.542;2022-08-11T11:54:27;31.80;60.10
11569;DHT22;5840;46.894;15.542;2022-08-11T11:56:56;31.70;54.90
11569;DHT22;5840;46.894;15.542;2022-08-11T11:59:47;31.50;56.00
11569;DHT22;5840;46.894;15.542;2022-08-11T12:02:31;31.70;55.70
11569;DHT22;5840;46.894;15.542;2022-08-11T12:04:59;31.70;55.60
11569;DHT22;5840;46.894;15.542;2022-08-11T12:07:27;31.90;57.30
11569;DHT22;5840;46.894;15.542;2022-08-11T12:10:13;32.10;55.60
11569;DHT22;5840;46.894;15.542;2022-08-11T12:12:40;32.20;55.60
11569;DHT22;5840;46.894;15.542;2022-08-11T12:15:26;31.90;56.20
11569;DHT22;5840;46.894;15.542;2022-08-11T12:17:53;31.40;57.60
11569;DHT22;5840;46.894;15.542;2022-08-11T12:20:22;31.10;56.80
11569;DHT22;5840;46.894;15.542;2022-08-11T12:22:49;31.00;58.90
11569;DHT22;5840;46.894;15.542;2022-08-11T12:25:35;30.90;55.70
11569;DHT22;5840;46.894;15.542;2022-08-11T12:28:20;31.00;57.30
11569;DHT22;5840;46.894;15.542;2022-08-11T12:30:50;30.90;57.00
11569;DHT22;5840;46.894;15.542;2022-08-11T12:33:18;30.60;57.70
11569;DHT22;5840;46.894;15.542;2022-08-11T12:35:47;30.20;58.00
11569;DHT22;5840;46.894;15.542;2022-08-11T12:38:19;30.30;58.50
11569;DHT22;5840;46.894;15.542;2022-08-11T12:40:47;30.40;57.30
11569;DHT22;5840;46.894;15.542;2022-08-11T12:43:34;30.70;57.70
11569;DHT22;5840;46.894;15.542;2022-08-11T12:46:22;30.80;57.60
11569;DHT22;5840;46.894;15.542;2022-08-11T12:48:55;30.90;59.00
11569;DHT22;5840;46.894;15.542;2022-08-11T12:51:44;30.50;55.70
11569;DHT22;5840;46.894;15.542;2022-08-11T12:54:27;30.70;56.40
11569;DHT22;5840;46.894;15.542;2022-08-11T12:56:59;30.90;58.30
11569;DHT22;5840;46.894;15.542;2022-08-11T12:59:44;30.90;56.60
11569;DHT22;5840;46.894;15.542;2022-08-11T13:02:30;31.00;56.60
11569;DHT22;5840;46.894;15.542;2022-08-11T13:05:16;30.90;55.90
11569;DHT22;5840;46.894;15.542;2022-08-11T13:07:44;30.90;56.10
11569;DHT22;5840;46.894;15.542;2022-08-11T13:10:13;30.90;57.60
11569;DHT22;5840;46.894;15.542;2022-08-11T13:13:02;31.00;57.10
11569;DHT22;5840;46.894;15.542;2022-08-11T13:15:28;31.20;56.00
11569;DHT22;5840;46.894;15.542;2022-08-11T13:17:58;31.20;56.30
11569;DHT22;5840;46.894;15.542;2022-08-11T13:20:25;31.30;57.10
11569;DHT22;5840;46.894;15.542;2022-08-11T13:22:54;31.00;54.80
11569;DHT22;5840;46.894;15.542;2022-08-11T13:25:24;31.00;56.60
11569;DHT22;5840;46.894;15.542;2022-08-11T13:27:54;31.00;53.90
11569;DHT22;5840;46.894;15.542;2022-08-11T13:30:24;31.00;56.70
11569;DHT22;5840;46.894;15.542;2022-08-11T13:33:11;31.10;54.80
11569;DHT22;5840;46.894;15.542;2022-08-11T13:35:40;31.20;55.00
11569;DHT22;5840;46.894;15.542;2022-08-11T13:38:08;31.10;53.80
11569;DHT22;5840;46.894;15.542;2022-08-11T13:40:38;31.10;56.10
11569;DHT22;5840;46.894;15.542;2022-08-11T13:43:06;31.20;55.00
11569;DHT22;5840;46.894;15.542;2022-08-11T13:45:35;31.10;55.20
11569;DHT22;5840;46.894;15.542;2022-08-11T13:48:07;31.00;52.70
11569;DHT22;5840;46.894;15.542;2022-08-11T13:50:36;31.00;54.00
11569;DHT22;5840;46.894;15.542;2022-08-11T13:53:23;31.00;57.60
11569;DHT22;5840;46.894;15.542;2022-08-11T13:55:50;31.00;56.60
11569;DHT22;5840;46.894;15.542;2022-08-11T13:58:18;31.00;54.90
11569;DHT22;5840;46.894;15.542;2022-08-11T14:00:49;31.00;54.70
11569;DHT22;5840;46.894;15.542;2022-08-11T14:03:20;30.80;55.20
11569;DHT22;5840;46.894;15.542;2022-08-11T14:05:52;30.60;55.10
11569;DHT22;5840;46.894;15.542;2022-08-11T14:08:24;30.60;55.60
11569;DHT22;5840;46.894;15.542;2022-08-11T14:10:54;30.50;55.20
11569;DHT22;5840;46.894;15.542;2022-08-11T14:13:44;30.40;54.30
11569;DHT22;5840;46.894;15.542;2022-08-11T14:16:15;30.30;57.50
11569;DHT22;5840;46.894;15.542;2022-08-11T14:18:46;30.20;54.90
11569;DHT22;5840;46.894;15.542;2022-08-11T14:21:17;30.10;55.80
11569;DHT22;5840;46.894;15.542;2022-08-11T14:24:03;30.10;56.70
11569;DHT22;5840;46.894;15.542;2022-08-11T14:26:31;30.10;58.80
11569;DHT22;5840;46.894;15.542;2022-08-11T14:29:06;30.10;57.90
11569;DHT22;5840;46.894;15.542;2022-08-11T14:31:36;30.10;56.50
11569;DHT22;5840;46.894;15.542;2022-08-11T14:34:05;30.00;55.70
11569;DHT22;5840;46.894;15.542;2022-08-11T14:36:36;29.80;56.10
11569;DHT22;5840;46.894;15.542;2022-08-11T14:39:07;29.60;54.90
11569;DHT22;5840;46.894;15.542;2022-08-11T14:41:38;29.60;55.40
11569;DHT22;5840;46.894;15.542;2022-08-11T14:44:23;29.70;55.60
11569;DHT22;5840;46.894;15.542;2022-08-11T14:47:08;29.70;56.20
11569;DHT22;5840;46.894;15.542;2022-08-11T14:49:40;29.80;57.90
11569;DHT22;5840;46.894;15.542;2022-08-11T14:52:11;29.80;56.80
11569;DHT22;5840;46.894;15.542;2022-08-11T14:54:42;29.90;58.80
11569;DHT22;5840;46.894;15.542;2022-08-11T14:57:28;29.80;56.30
11569;DHT22;5840;46.894;15.542;2022-08-11T14:59:59;29.60;56.60
11569;DHT22;5840;46.894;15.542;2022-08-11T15:02:26;29.60;56.60
11569;DHT22;5840;46.894;15.542;2022-08-11T15:05:14;29.50;57.70
11569;DHT22;5840;46.894;15.542;2022-08-11T15:07:42;29.50;57.30
11569;DHT22;5840;46.894;15.542;2022-08-11T15:10:11;29.50;59.00
11569;DHT22;5840;46.894;15.542;2022-08-11T15:12:39;29.40;55.60
11569;DHT22;5840;46.894;15.542;2022-08-11T15:15:09;29.30;57.00
11569;DHT22;5840;46.894;15.542;2022-08-11T15:17:55;29.10;56.70
11569;DHT22;5840;46.894;15.542;2022-08-11T15:20:24;28.90;56.50
11569;DHT22;5840;46.894;15.542;2022-08-11T15:23:10;28.90;56.80
11569;DHT22;5840;46.894;15.542;2022-08-11T15:25:57;28.90;57.20
11569;DHT22;5840;46.894;15.542;2022-08-11T15:28:26;28.90;60.70
11569;DHT22;5840;46.894;15.542;2022-08-11T15:31:13;28.80;58.50
11569;DHT22;5840;46.894;15.542;2022-08-11T15:34:02;28.70;59.60
11569;DHT22;5840;46.894;15.542;2022-08-11T15:36:50;28.60;58.90
11569;DHT22;5840;46.894;15.542;2022-08-11T15:39:47;28.50;61.70
11569;DHT22;5840;46.894;15.542;2022-08-11T15:42:34;28.30;61.10
11569;DHT22;5840;46.894;15.542;2022-08-11T15:45:22;28.20;60.70
11569;DHT22;5840;46.894;15.542;2022-08-11T15:48:11;28.10;61.10
11569;DHT22;5840;46.894;15.542;2022-08-11T15:50:49;28.00;59.40
11569;DHT22;5840;46.894;15.542;2022-08-11T15:53:26;27.80;59.80
11569;DHT22;5840;46.894;15.542;2022-08-11T15:55:55;27.60;60.30
11569;DHT22;5840;46.894;15.542;2022-08-11T15:58:25;27.50;61.30
11569;DHT22;5840;46.894;15.542;2022-08-11T16:01:12;27.40;61.50
11569;DHT22;5840;46.894;15.542;2022-08-11T16:04:02;27.30;60.90
11569;DHT22;5840;46.894;15.542;2022-08-11T16:06:47;27.20;61.20
11569;DHT22;5840;46.894;15.542;2022-08-11T16:09:19;27.20;62.20
11569;DHT22;5840;46.894;15.542;2022-08-11T16:11:48;27.10;61.90
11569;DHT22;5840;46.894;15.542;2022-08-11T16:14:16;27.00;63.00
11569;DHT22;5840;46.894;15.542;2022-08-11T16:17:03;26.90;62.80
11569;DHT22;5840;46.894;15.542;2022-08-11T16:19:32;26.80;64.00
11569;DHT22;5840;46.894;15.542;2022-08-11T16:22:02;26.80;63.70
11569;DHT22;5840;46.894;15.542;2022-08-11T16:24:33;26.80;63.90
11569;DHT22;5840;46.894;15.542;2022-08-11T16:27:04;26.70;64.40
11569;DHT22;5840;46.894;15.542;2022-08-11T16:29:32;26.70;64.80
11569;DHT22;5840;46.894;15.542;2022-08-11T16:32:03;26.60;65.00
11569;DHT22;5840;46.894;15.542;2022-08-11T16:34:43;26.60;65.40
11569;DHT22;5840;46.894;15.542;2022-08-11T16:37:30;26.60;65.20
11569;DHT22;5840;46.894;15.542;2022-08-11T16:40:18;26.50;64.30
11569;DHT22;5840;46.894;15.542;2022-08-11T16:42:47;26.40;63.90
11569;DHT22;5840;46.894;15.542;2022-08-11T16:45:33;26.30;64.30
11569;DHT22;5840;46.894;15.542;2022-08-11T16:48:18;26.20;64.30
11569;DHT22;5840;46.894;15.542;2022-08-11T16:50:45;26.00;64.10
11569;DHT22;5840;46.894;15.542;2022-08-11T16:53:13;25.90;65.60
11569;DHT22;5840;46.894;15.542;2022-08-11T16:55:43;25.90;64.90
11569;DHT22;5840;46.894;15.542;2022-08-11T16:58:12;25.80;65.00
11569;DHT22;5840;46.894;15.542;2022-08-11T17:00:57;25.80;64.80
11569;DHT22;5840;46.894;15.542;2022-08-11T17:03:25;25.70;64.40
11569;DHT22;5840;46.894;15.542;2022-08-11T17:06:19;25.60;64.40
11569;DHT22;5840;46.894;15.542;2022-08-11T17:09:05;25.50;64.40
11569;DHT22;5840;46.894;15.542;2022-08-11T17:12:07;25.40;65.80
11569;DHT22;5840;46.894;15.542;2022-08-11T17:14:59;25.30;65.20
11569;DHT22;5840;46.894;15.542;2022-08-11T17:17:29;25.20;65.80
11569;DHT22;5840;46.894;15.542;2022-08-11T17:20:02;25.20;65.90
11569;DHT22;5840;46.894;15.542;2022-08-11T17:22:33;25.20;66.30
11569;DHT22;5840;46.894;15.542;2022-08-11T17:25:21;25.10;66.20